sensor_id;sensor_type;location;lat;lon;timestamp;P1;durP1;ratioP1;P2;durP2;ratioP2
9671;SDS011;4874;43.568;27.824;2023-05-31T00:00:04;11.32;;;7.85;;
9671;SDS011;4874;43.568;27.824;2023-05-31T00:02:31;15.38;;;8.88;;
9671;SDS011;4874;43.568;27.824;2023-05-31T00:04:58;16.15;;;8.45;;
9671;SDS011;4874;43.568;27.824;2023-05-31T00:07:25;11.60;;;8.65;;
9671;SDS011;4874;43.568;27.824;2023-05-31T00:09:52;13.60;;;8.50;;
9671;SDS011;4874;43.568;27.824;2023-05-31T00:12:18;9.93;;;7.38;;
9671;SDS011;4874;43.568;27.824;2023-05-31T00:14:46;13.07;;;8.98;;
9671;SDS011;4874;43.568;27.824;2023-05-31T00:17:13;11.65;;;8.35;;
9671;SDS011;4874;43.568;27.824;2023-05-31T00:20:00;12.90;;;7.63;;
9671;SDS011;4874;43.568;27.824;2023-05-31T00:22:26;12.30;;;8.98;;
9671;SDS011;4874;43.568;27.824;2023-05-31T00:24:53;11.00;;;8.05;;
9671;SDS011;4874;43.568;27.824;2023-05-31T00:27:21;12.23;;;8.40;;
9671;SDS011;4874;43.568;27.824;2023-05-31T00:29:48;13.60;;;8.23;;
9671;SDS011;4874;43.568;27.824;2023-05-31T00:32:15;10.25;;;7.00;;
9671;SDS011;4874;43.568;27.824;2023-05-31T00:34:41;13.23;;;7.43;;
9671;SDS011;4874;43.568;27.824;2023-05-31T00:37:08;14.20;;;7.63;;
9671;SDS011;4874;43.568;27.824;2023-05-31T00:39:35;13.40;;;7.60;;
9671;SDS011;4874;43.568;27.824;2023-05-31T00:42:01;13.30;;;7.45;;
9671;SDS011;4874;43.568;27.824;2023-05-31T00:44:28;9.18;;;7.13;;
9671;SDS011;4874;43.568;27.824;2023-05-31T00:46:56;11.05;;;7.25;;
9671;SDS011;4874;43.568;27.824;2023-05-31T00:49:23;10.70;;;7.25;;
9671;SDS011;4874;43.568;27.824;2023-05-31T00:51:50;12.10;;;7.38;;
9671;SDS011;4874;43.568;27.824;2023-05-31T00:54:17;10.65;;;7.47;;
9671;SDS011;4874;43.568;27.824;2023-05-31T00:56:44;10.40;;;6.82;;
9671;SDS011;4874;43.568;27.824;2023-05-31T00:59:11;10.45;;;7.80;;
9671;SDS011;4874;43.568;27.824;2023-05-31T01:01:38;11.23;;;7.40;;
9671;SDS011;4874;43.568;27.824;2023-05-31T01:04:05;10.93;;;7.40;;
9671;SDS011;4874;43.568;27.824;2023-05-31T01:06:34;9.77;;;7.90;;
9671;SDS011;4874;43.568;27.824;2023-05-31T01:09:02;9.70;;;6.60;;
9671;SDS011;4874;43.568;27.824;2023-05-31T01:14:13;10.52;;;7.55;;
9671;SDS011;4874;43.568;27.824;2023-05-31T01:19:57;11.48;;;7.82;;
9671;SDS011;4874;43.568;27.824;2023-05-31T01:22:46;10.57;;;7.22;;
9671;SDS011;4874;43.568;27.824;2023-05-31T01:27:56;11.68;;;7.55;;
9671;SDS011;4874;43.568;27.824;2023-05-31T01:30:27;11.38;;;7.38;;
9671;SDS011;4874;43.568;27.824;2023-05-31T01:32:58;13.15;;;7.10;;
9671;SDS011;4874;43.568;27.824;2023-05-31T01:35:26;12.23;;;7.82;;
9671;SDS011;4874;43.568;27.824;2023-05-31T01:37:53;9.05;;;6.95;;
9671;SDS011;4874;43.568;27.824;2023-05-31T01:40:20;11.82;;;7.20;;
9671;SDS011;4874;43.568;27.824;2023-05-31T01:42:47;11.82;;;7.05;;
9671;SDS011;4874;43.568;27.824;2023-05-31T01:45:16;9.18;;;6.50;;
9671;SDS011;4874;43.568;27.824;2023-05-31T01:47:44;9.25;;;7.05;;
9671;SDS011;4874;43.568;27.824;2023-05-31T01:50:13;9.55;;;6.82;;
9671;SDS011;4874;43.568;27.824;2023-05-31T01:52:41;12.23;;;7.55;;
9671;SDS011;4874;43.568;27.824;2023-05-31T01:55:08;9.73;;;6.38;;
9671;SDS011;4874;43.568;27.824;2023-05-31T01:57:37;12.48;;;7.28;;
9671;SDS011;4874;43.568;27.824;2023-05-31T02:00:06;11.82;;;7.55;;
9671;SDS011;4874;43.568;27.824;2023-05-31T02:02:40;14.48;;;7.65;;
9671;SDS011;4874;43.568;27.824;2023-05-31T02:05:08;9.80;;;7.60;;
9671;SDS011;4874;43.568;27.824;2023-05-31T02:07:37;13.18;;;7.72;;
9671;SDS011;4874;43.568;27.824;2023-05-31T02:10:05;10.40;;;7.78;;
9671;SDS011;4874;43.568;27.824;2023-05-31T02:12:32;12.70;;;7.97;;
9671;SDS011;4874;43.568;27.824;2023-05-31T02:14:59;12.75;;;8.00;;
9671;SDS011;4874;43.568;27.824;2023-05-31T02:17:27;10.77;;;7.63;;
9671;SDS011;4874;43.568;27.824;2023-05-31T02:19:55;12.88;;;7.47;;
9671;SDS011;4874;43.568;27.824;2023-05-31T02:22:22;16.27;;;8.07;;
9671;SDS011;4874;43.568;27.824;2023-05-31T02:24:48;10.98;;;7.80;;
9671;SDS011;4874;43.568;27.824;2023-05-31T02:27:15;13.13;;;8.35;;
9671;SDS011;4874;43.568;27.824;2023-05-31T02:29:44;11.35;;;8.55;;
9671;SDS011;4874;43.568;27.824;2023-05-31T02:32:12;12.98;;;7.45;;
9671;SDS011;4874;43.568;27.824;2023-05-31T02:34:39;13.20;;;8.23;;
9671;SDS011;4874;43.568;27.824;2023-05-31T02:37:05;11.15;;;7.97;;
9671;SDS011;4874;43.568;27.824;2023-05-31T02:39:32;12.68;;;8.30;;
9671;SDS011;4874;43.568;27.824;2023-05-31T02:41:59;11.55;;;7.60;;
9671;SDS011;4874;43.568;27.824;2023-05-31T02:44:26;10.68;;;8.32;;
9671;SDS011;4874;43.568;27.824;2023-05-31T02:46:53;13.70;;;8.13;;
9671;SDS011;4874;43.568;27.824;2023-05-31T02:49:20;14.02;;;8.02;;
9671;SDS011;4874;43.568;27.824;2023-05-31T02:51:47;12.27;;;9.05;;
9671;SDS011;4874;43.568;27.824;2023-05-31T02:54:13;11.93;;;8.35;;
9671;SDS011;4874;43.568;27.824;2023-05-31T02:56:40;12.07;;;8.30;;
9671;SDS011;4874;43.568;27.824;2023-05-31T02:59:07;13.20;;;8.13;;
9671;SDS011;4874;43.568;27.824;2023-05-31T03:01:34;12.23;;;8.45;;
9671;SDS011;4874;43.568;27.824;2023-05-31T03:04:01;12.93;;;8.93;;
9671;SDS011;4874;43.568;27.824;2023-05-31T03:06:27;10.45;;;7.65;;
9671;SDS011;4874;43.568;27.824;2023-05-31T03:08:54;11.90;;;8.18;;
9671;SDS011;4874;43.568;27.824;2023-05-31T03:11:21;12.43;;;8.25;;
9671;SDS011;4874;43.568;27.824;2023-05-31T03:13:48;14.15;;;9.20;;
9671;SDS011;4874;43.568;27.824;2023-05-31T03:16:15;13.13;;;8.13;;
9671;SDS011;4874;43.568;27.824;2023-05-31T03:18:43;16.13;;;8.65;;
9671;SDS011;4874;43.568;27.824;2023-05-31T03:21:10;11.95;;;7.85;;
9671;SDS011;4874;43.568;27.824;2023-05-31T03:23:37;11.10;;;7.80;;
9671;SDS011;4874;43.568;27.824;2023-05-31T03:26:03;12.07;;;7.55;;
9671;SDS011;4874;43.568;27.824;2023-05-31T03:28:30;13.35;;;7.55;;
9671;SDS011;4874;43.568;27.824;2023-05-31T03:30:57;12.27;;;7.90;;
9671;SDS011;4874;43.568;27.824;2023-05-31T03:33:24;13.95;;;7.88;;
9671;SDS011;4874;43.568;27.824;2023-05-31T03:35:51;15.00;;;8.38;;
9671;SDS011;4874;43.568;27.824;2023-05-31T03:38:18;14.20;;;8.32;;
9671;SDS011;4874;43.568;27.824;2023-05-31T03:40:45;13.65;;;7.95;;
9671;SDS011;4874;43.568;27.824;2023-05-31T03:43:11;12.45;;;8.48;;
9671;SDS011;4874;43.568;27.824;2023-05-31T03:45:38;11.90;;;7.68;;
9671;SDS011;4874;43.568;27.824;2023-05-31T03:48:05;11.88;;;8.52;;
9671;SDS011;4874;43.568;27.824;2023-05-31T03:50:32;14.00;;;8.10;;
9671;SDS011;4874;43.568;27.824;2023-05-31T03:52:59;13.95;;;7.88;;
9671;SDS011;4874;43.568;27.824;2023-05-31T03:55:26;14.30;;;7.75;;
9671;SDS011;4874;43.568;27.824;2023-05-31T03:57:52;17.38;;;7.97;;
9671;SDS011;4874;43.568;27.824;2023-05-31T04:00:19;11.32;;;7.35;;
9671;SDS011;4874;43.568;27.824;2023-05-31T04:02:46;11.60;;;8.00;;
9671;SDS011;4874;43.568;27.824;2023-05-31T04:05:28;11.63;;;7.28;;
9671;SDS011;4874;43.568;27.824;2023-05-31T04:07:55;11.95;;;7.88;;
9671;SDS011;4874;43.568;27.824;2023-05-31T04:10:21;15.23;;;7.47;;
9671;SDS011;4874;43.568;27.824;2023-05-31T04:12:48;12.00;;;8.02;;
9671;SDS011;4874;43.568;27.824;2023-05-31T04:15:16;10.07;;;6.68;;
9671;SDS011;4874;43.568;27.824;2023-05-31T04:17:42;11.32;;;7.45;;
9671;SDS011;4874;43.568;27.824;2023-05-31T04:20:09;13.07;;;7.57;;
9671;SDS011;4874;43.568;27.824;2023-05-31T04:22:37;11.32;;;7.30;;
9671;SDS011;4874;43.568;27.824;2023-05-31T04:25:03;13.05;;;7.43;;
9671;SDS011;4874;43.568;27.824;2023-05-31T04:27:31;11.27;;;7.82;;
9671;SDS011;4874;43.568;27.824;2023-05-31T04:29:59;11.65;;;7.93;;
9671;SDS011;4874;43.568;27.824;2023-05-31T04:32:27;11.40;;;7.70;;
9671;SDS011;4874;43.568;27.824;2023-05-31T04:34:56;17.70;;;9.50;;
9671;SDS011;4874;43.568;27.824;2023-05-31T04:37:24;11.05;;;7.93;;
9671;SDS011;4874;43.568;27.824;2023-05-31T04:39:55;10.90;;;7.85;;
9671;SDS011;4874;43.568;27.824;2023-05-31T04:42:26;14.93;;;9.57;;
9671;SDS011;4874;43.568;27.824;2023-05-31T04:44:53;19.08;;;9.90;;
9671;SDS011;4874;43.568;27.824;2023-05-31T04:47:24;10.85;;;7.50;;
9671;SDS011;4874;43.568;27.824;2023-05-31T04:49:56;12.98;;;8.23;;
9671;SDS011;4874;43.568;27.824;2023-05-31T04:52:24;15.80;;;10.07;;
9671;SDS011;4874;43.568;27.824;2023-05-31T04:54:55;12.35;;;7.50;;
9671;SDS011;4874;43.568;27.824;2023-05-31T04:57:22;14.02;;;8.05;;
9671;SDS011;4874;43.568;27.824;2023-05-31T04:59:49;13.13;;;7.38;;
9671;SDS011;4874;43.568;27.824;2023-05-31T05:02:17;10.15;;;7.07;;
9671;SDS011;4874;43.568;27.824;2023-05-31T05:04:45;10.88;;;7.60;;
9671;SDS011;4874;43.568;27.824;2023-05-31T05:07:12;14.57;;;8.18;;
9671;SDS011;4874;43.568;27.824;2023-05-31T05:09:39;12.95;;;7.05;;
9671;SDS011;4874;43.568;27.824;2023-05-31T05:12:06;15.65;;;7.72;;
9671;SDS011;4874;43.568;27.824;2023-05-31T05:14:34;12.30;;;6.43;;
9671;SDS011;4874;43.568;27.824;2023-05-31T05:17:01;11.88;;;8.70;;
9671;SDS011;4874;43.568;27.824;2023-05-31T05:19:28;15.27;;;7.53;;
9671;SDS011;4874;43.568;27.824;2023-05-31T05:21:54;12.20;;;7.80;;
9671;SDS011;4874;43.568;27.824;2023-05-31T05:24:21;15.38;;;8.40;;
9671;SDS011;4874;43.568;27.824;2023-05-31T05:26:48;10.82;;;7.25;;
9671;SDS011;4874;43.568;27.824;2023-05-31T05:29:15;13.95;;;7.82;;
9671;SDS011;4874;43.568;27.824;2023-05-31T05:31:42;11.43;;;7.25;;
9671;SDS011;4874;43.568;27.824;2023-05-31T05:34:09;16.73;;;7.57;;
9671;SDS011;4874;43.568;27.824;2023-05-31T05:36:36;13.50;;;7.43;;
9671;SDS011;4874;43.568;27.824;2023-05-31T05:39:03;14.15;;;7.25;;
9671;SDS011;4874;43.568;27.824;2023-05-31T05:41:32;12.88;;;8.10;;
9671;SDS011;4874;43.568;27.824;2023-05-31T05:44:01;12.32;;;6.80;;
9671;SDS011;4874;43.568;27.824;2023-05-31T05:46:28;13.43;;;8.13;;
9671;SDS011;4874;43.568;27.824;2023-05-31T05:48:55;11.43;;;6.80;;
9671;SDS011;4874;43.568;27.824;2023-05-31T05:51:23;14.55;;;7.32;;
9671;SDS011;4874;43.568;27.824;2023-05-31T05:53:49;15.48;;;7.53;;
9671;SDS011;4874;43.568;27.824;2023-05-31T05:56:16;11.60;;;7.32;;
9671;SDS011;4874;43.568;27.824;2023-05-31T05:58:46;12.77;;;6.57;;
9671;SDS011;4874;43.568;27.824;2023-05-31T06:01:13;11.45;;;7.38;;
9671;SDS011;4874;43.568;27.824;2023-05-31T06:03:48;13.80;;;7.03;;
9671;SDS011;4874;43.568;27.824;2023-05-31T06:06:16;14.30;;;7.00;;
9671;SDS011;4874;43.568;27.824;2023-05-31T06:08:43;10.15;;;5.70;;
9671;SDS011;4874;43.568;27.824;2023-05-31T06:11:13;10.45;;;6.40;;
9671;SDS011;4874;43.568;27.824;2023-05-31T06:13:44;13.23;;;6.95;;
9671;SDS011;4874;43.568;27.824;2023-05-31T06:16:12;13.75;;;6.90;;
9671;SDS011;4874;43.568;27.824;2023-05-31T06:18:39;11.85;;;7.13;;
9671;SDS011;4874;43.568;27.824;2023-05-31T06:21:06;9.13;;;5.90;;
9671;SDS011;4874;43.568;27.824;2023-05-31T06:23:33;18.55;;;13.65;;
9671;SDS011;4874;43.568;27.824;2023-05-31T06:26:01;18.02;;;7.82;;
9671;SDS011;4874;43.568;27.824;2023-05-31T06:28:27;9.82;;;6.13;;
9671;SDS011;4874;43.568;27.824;2023-05-31T06:30:57;9.00;;;5.10;;
9671;SDS011;4874;43.568;27.824;2023-05-31T06:33:25;10.13;;;5.28;;
9671;SDS011;4874;43.568;27.824;2023-05-31T06:35:52;9.02;;;5.38;;
9671;SDS011;4874;43.568;27.824;2023-05-31T06:38:19;10.68;;;7.78;;
9671;SDS011;4874;43.568;27.824;2023-05-31T06:40:47;12.05;;;6.25;;
9671;SDS011;4874;43.568;27.824;2023-05-31T06:43:14;7.25;;;4.78;;
9671;SDS011;4874;43.568;27.824;2023-05-31T06:45:42;6.65;;;4.57;;
9671;SDS011;4874;43.568;27.824;2023-05-31T06:48:09;9.50;;;5.28;;
9671;SDS011;4874;43.568;27.824;2023-05-31T06:50:36;12.70;;;6.10;;
9671;SDS011;4874;43.568;27.824;2023-05-31T06:53:02;7.13;;;4.55;;
9671;SDS011;4874;43.568;27.824;2023-05-31T06:55:29;8.45;;;4.22;;
9671;SDS011;4874;43.568;27.824;2023-05-31T06:57:57;9.48;;;4.97;;
9671;SDS011;4874;43.568;27.824;2023-05-31T07:00:24;9.15;;;4.40;;
9671;SDS011;4874;43.568;27.824;2023-05-31T07:02:50;8.93;;;4.53;;
9671;SDS011;4874;43.568;27.824;2023-05-31T07:05:17;8.30;;;4.20;;
9671;SDS011;4874;43.568;27.824;2023-05-31T07:07:44;9.32;;;4.95;;
9671;SDS011;4874;43.568;27.824;2023-05-31T07:10:11;13.07;;;5.95;;
9671;SDS011;4874;43.568;27.824;2023-05-31T07:12:38;12.70;;;5.20;;
9671;SDS011;4874;43.568;27.824;2023-05-31T07:15:05;8.82;;;4.43;;
9671;SDS011;4874;43.568;27.824;2023-05-31T07:17:35;8.50;;;3.80;;
9671;SDS011;4874;43.568;27.824;2023-05-31T07:20:01;10.93;;;3.53;;
9671;SDS011;4874;43.568;27.824;2023-05-31T07:22:30;6.60;;;4.20;;
9671;SDS011;4874;43.568;27.824;2023-05-31T07:24:56;8.32;;;2.83;;
9671;SDS011;4874;43.568;27.824;2023-05-31T07:27:24;16.52;;;4.20;;
9671;SDS011;4874;43.568;27.824;2023-05-31T07:29:50;7.30;;;3.15;;
9671;SDS011;4874;43.568;27.824;2023-05-31T07:32:17;21.83;;;3.50;;
9671;SDS011;4874;43.568;27.824;2023-05-31T07:34:44;8.25;;;2.40;;
9671;SDS011;4874;43.568;27.824;2023-05-31T07:37:27;5.82;;;2.72;;
9671;SDS011;4874;43.568;27.824;2023-05-31T07:39:53;7.57;;;2.80;;
9671;SDS011;4874;43.568;27.824;2023-05-31T07:42:20;6.40;;;2.70;;
9671;SDS011;4874;43.568;27.824;2023-05-31T07:44:48;6.57;;;2.65;;
9671;SDS011;4874;43.568;27.824;2023-05-31T07:47:15;7.60;;;2.72;;
9671;SDS011;4874;43.568;27.824;2023-05-31T07:49:42;5.43;;;2.83;;
9671;SDS011;4874;43.568;27.824;2023-05-31T07:52:09;14.18;;;2.67;;
9671;SDS011;4874;43.568;27.824;2023-05-31T07:54:36;3.97;;;2.03;;
9671;SDS011;4874;43.568;27.824;2023-05-31T07:57:03;7.90;;;2.20;;
9671;SDS011;4874;43.568;27.824;2023-05-31T07:59:30;6.13;;;2.63;;
9671;SDS011;4874;43.568;27.824;2023-05-31T08:01:57;8.88;;;2.60;;
9671;SDS011;4874;43.568;27.824;2023-05-31T08:04:23;5.72;;;2.30;;
9671;SDS011;4874;43.568;27.824;2023-05-31T08:06:50;7.38;;;2.45;;
9671;SDS011;4874;43.568;27.824;2023-05-31T08:09:17;4.60;;;2.05;;
9671;SDS011;4874;43.568;27.824;2023-05-31T08:11:46;6.57;;;2.20;;
9671;SDS011;4874;43.568;27.824;2023-05-31T08:14:13;6.85;;;2.50;;
9671;SDS011;4874;43.568;27.824;2023-05-31T08:16:40;4.63;;;2.50;;
9671;SDS011;4874;43.568;27.824;2023-05-31T08:19:07;4.80;;;2.30;;
9671;SDS011;4874;43.568;27.824;2023-05-31T08:21:33;8.48;;;2.33;;
9671;SDS011;4874;43.568;27.824;2023-05-31T08:24:05;4.93;;;2.70;;
9671;SDS011;4874;43.568;27.824;2023-05-31T08:26:33;5.82;;;2.30;;
9671;SDS011;4874;43.568;27.824;2023-05-31T08:29:00;4.00;;;2.10;;
9671;SDS011;4874;43.568;27.824;2023-05-31T08:31:27;5.30;;;2.20;;
9671;SDS011;4874;43.568;27.824;2023-05-31T08:33:55;7.35;;;3.17;;
9671;SDS011;4874;43.568;27.824;2023-05-31T08:36:23;5.60;;;2.03;;
9671;SDS011;4874;43.568;27.824;2023-05-31T08:38:51;6.32;;;2.10;;
9671;SDS011;4874;43.568;27.824;2023-05-31T08:41:18;5.38;;;2.47;;
9671;SDS011;4874;43.568;27.824;2023-05-31T08:43:47;6.47;;;2.22;;
9671;SDS011;4874;43.568;27.824;2023-05-31T08:46:14;5.80;;;1.67;;
9671;SDS011;4874;43.568;27.824;2023-05-31T08:48:55;6.18;;;3.00;;
9671;SDS011;4874;43.568;27.824;2023-05-31T08:51:32;4.13;;;2.22;;
9671;SDS011;4874;43.568;27.824;2023-05-31T08:54:03;5.72;;;2.08;;
9671;SDS011;4874;43.568;27.824;2023-05-31T08:56:32;11.73;;;2.88;;
9671;SDS011;4874;43.568;27.824;2023-05-31T08:59:00;4.60;;;2.20;;
9671;SDS011;4874;43.568;27.824;2023-05-31T09:01:27;8.27;;;2.80;;
9671;SDS011;4874;43.568;27.824;2023-05-31T09:03:55;5.97;;;2.40;;
9671;SDS011;4874;43.568;27.824;2023-05-31T09:06:22;5.18;;;2.00;;
9671;SDS011;4874;43.568;27.824;2023-05-31T09:08:49;4.85;;;2.13;;
9671;SDS011;4874;43.568;27.824;2023-05-31T09:11:16;4.68;;;2.13;;
9671;SDS011;4874;43.568;27.824;2023-05-31T09:13:43;6.32;;;2.17;;
9671;SDS011;4874;43.568;27.824;2023-05-31T09:16:10;4.53;;;2.35;;
9671;SDS011;4874;43.568;27.824;2023-05-31T09:18:37;4.90;;;2.22;;
9671;SDS011;4874;43.568;27.824;2023-05-31T09:21:14;5.82;;;2.15;;
9671;SDS011;4874;43.568;27.824;2023-05-31T09:23:51;8.00;;;2.75;;
9671;SDS011;4874;43.568;27.824;2023-05-31T09:26:22;4.93;;;2.38;;
9671;SDS011;4874;43.568;27.824;2023-05-31T09:28:50;5.05;;;2.40;;
9671;SDS011;4874;43.568;27.824;2023-05-31T09:31:18;3.88;;;1.80;;
9671;SDS011;4874;43.568;27.824;2023-05-31T09:33:46;5.35;;;2.13;;
9671;SDS011;4874;43.568;27.824;2023-05-31T09:36:23;6.18;;;3.08;;
9671;SDS011;4874;43.568;27.824;2023-05-31T09:39:02;4.90;;;1.80;;
9671;SDS011;4874;43.568;27.824;2023-05-31T09:41:39;3.40;;;1.80;;
9671;SDS011;4874;43.568;27.824;2023-05-31T09:44:07;4.93;;;2.00;;
9671;SDS011;4874;43.568;27.824;2023-05-31T09:46:34;6.18;;;1.98;;
9671;SDS011;4874;43.568;27.824;2023-05-31T09:49:02;7.95;;;2.15;;
9671;SDS011;4874;43.568;27.824;2023-05-31T09:51:31;3.65;;;1.73;;
9671;SDS011;4874;43.568;27.824;2023-05-31T09:54:02;3.60;;;1.63;;
9671;SDS011;4874;43.568;27.824;2023-05-31T09:56:37;7.43;;;2.40;;
9671;SDS011;4874;43.568;27.824;2023-05-31T09:59:05;8.20;;;2.75;;
9671;SDS011;4874;43.568;27.824;2023-05-31T10:01:32;3.95;;;1.70;;
9671;SDS011;4874;43.568;27.824;2023-05-31T10:04:00;4.35;;;1.80;;
9671;SDS011;4874;43.568;27.824;2023-05-31T10:06:29;6.57;;;2.38;;
9671;SDS011;4874;43.568;27.824;2023-05-31T10:09:05;4.80;;;1.90;;
9671;SDS011;4874;43.568;27.824;2023-05-31T10:11:37;8.90;;;2.28;;
9671;SDS011;4874;43.568;27.824;2023-05-31T10:14:09;5.53;;;2.45;;
9671;SDS011;4874;43.568;27.824;2023-05-31T10:16:45;4.45;;;2.03;;
9671;SDS011;4874;43.568;27.824;2023-05-31T10:19:18;4.13;;;1.83;;
9671;SDS011;4874;43.568;27.824;2023-05-31T10:21:50;5.35;;;2.17;;
9671;SDS011;4874;43.568;27.824;2023-05-31T10:24:23;4.20;;;2.17;;
9671;SDS011;4874;43.568;27.824;2023-05-31T10:29:42;3.80;;;1.92;;
9671;SDS011;4874;43.568;27.824;2023-05-31T10:32:22;4.30;;;1.80;;
9671;SDS011;4874;43.568;27.824;2023-05-31T10:34:52;5.13;;;1.85;;
9671;SDS011;4874;43.568;27.824;2023-05-31T10:37:19;3.88;;;1.70;;
9671;SDS011;4874;43.568;27.824;2023-05-31T10:48:10;6.25;;;1.90;;
9671;SDS011;4874;43.568;27.824;2023-05-31T10:50:52;4.80;;;2.00;;
9671;SDS011;4874;43.568;27.824;2023-05-31T10:53:44;3.33;;;1.80;;
9671;SDS011;4874;43.568;27.824;2023-05-31T10:56:11;5.72;;;1.63;;
9671;SDS011;4874;43.568;27.824;2023-05-31T10:58:47;3.67;;;2.10;;
9671;SDS011;4874;43.568;27.824;2023-05-31T11:01:17;3.80;;;2.05;;
9671;SDS011;4874;43.568;27.824;2023-05-31T11:03:48;4.55;;;2.10;;
9671;SDS011;4874;43.568;27.824;2023-05-31T11:06:18;7.45;;;1.98;;
9671;SDS011;4874;43.568;27.824;2023-05-31T11:09:12;4.43;;;1.70;;
9671;SDS011;4874;43.568;27.824;2023-05-31T11:19:33;7.00;;;3.97;;
9671;SDS011;4874;43.568;27.824;2023-05-31T11:27:20;4.93;;;1.80;;
9671;SDS011;4874;43.568;27.824;2023-05-31T11:35:03;7.97;;;2.13;;
9671;SDS011;4874;43.568;27.824;2023-05-31T11:37:33;5.53;;;2.22;;
9671;SDS011;4874;43.568;27.824;2023-05-31T11:40:09;4.50;;;2.13;;
9671;SDS011;4874;43.568;27.824;2023-05-31T11:42:39;4.00;;;1.98;;
9671;SDS011;4874;43.568;27.824;2023-05-31T11:45:08;4.93;;;2.20;;
9671;SDS011;4874;43.568;27.824;2023-05-31T11:50:25;4.47;;;2.10;;
9671;SDS011;4874;43.568;27.824;2023-05-31T11:52:52;4.03;;;1.85;;
9671;SDS011;4874;43.568;27.824;2023-05-31T11:55:21;11.27;;;2.05;;
9671;SDS011;4874;43.568;27.824;2023-05-31T11:57:48;4.30;;;1.90;;
9671;SDS011;4874;43.568;27.824;2023-05-31T12:00:20;3.45;;;1.80;;
9671;SDS011;4874;43.568;27.824;2023-05-31T12:02:53;3.30;;;1.95;;
9671;SDS011;4874;43.568;27.824;2023-05-31T12:05:28;6.25;;;1.75;;
9671;SDS011;4874;43.568;27.824;2023-05-31T12:07:55;4.88;;;2.15;;
9671;SDS011;4874;43.568;27.824;2023-05-31T12:10:30;4.18;;;1.98;;
9671;SDS011;4874;43.568;27.824;2023-05-31T12:12:59;7.22;;;2.63;;
9671;SDS011;4874;43.568;27.824;2023-05-31T12:15:31;7.63;;;2.50;;
9671;SDS011;4874;43.568;27.824;2023-05-31T12:17:58;5.75;;;2.35;;
9671;SDS011;4874;43.568;27.824;2023-05-31T12:20:29;4.75;;;2.40;;
9671;SDS011;4874;43.568;27.824;2023-05-31T12:23:12;4.68;;;2.42;;
9671;SDS011;4874;43.568;27.824;2023-05-31T12:25:46;4.03;;;2.20;;
9671;SDS011;4874;43.568;27.824;2023-05-31T12:28:16;4.63;;;1.85;;
9671;SDS011;4874;43.568;27.824;2023-05-31T12:30:48;5.50;;;1.98;;
9671;SDS011;4874;43.568;27.824;2023-05-31T12:33:15;5.68;;;2.17;;
9671;SDS011;4874;43.568;27.824;2023-05-31T12:35:43;6.65;;;2.10;;
9671;SDS011;4874;43.568;27.824;2023-05-31T12:38:11;6.40;;;2.15;;
9671;SDS011;4874;43.568;27.824;2023-05-31T12:40:42;3.45;;;1.90;;
9671;SDS011;4874;43.568;27.824;2023-05-31T12:43:13;4.90;;;2.30;;
9671;SDS011;4874;43.568;27.824;2023-05-31T12:45:41;4.55;;;2.47;;
9671;SDS011;4874;43.568;27.824;2023-05-31T12:48:08;4.97;;;2.25;;
9671;SDS011;4874;43.568;27.824;2023-05-31T12:50:42;3.65;;;1.60;;
9671;SDS011;4874;43.568;27.824;2023-05-31T12:53:11;5.93;;;2.15;;
9671;SDS011;4874;43.568;27.824;2023-05-31T12:55:38;3.15;;;1.83;;
9671;SDS011;4874;43.568;27.824;2023-05-31T12:58:05;5.60;;;2.22;;
9671;SDS011;4874;43.568;27.824;2023-05-31T13:00:32;3.50;;;2.03;;
9671;SDS011;4874;43.568;27.824;2023-05-31T13:02:59;3.78;;;1.95;;
9671;SDS011;4874;43.568;27.824;2023-05-31T13:05:26;4.80;;;2.10;;
9671;SDS011;4874;43.568;27.824;2023-05-31T13:07:53;6.55;;;3.03;;
9671;SDS011;4874;43.568;27.824;2023-05-31T13:10:20;5.68;;;2.20;;
9671;SDS011;4874;43.568;27.824;2023-05-31T13:12:47;6.50;;;2.22;;
9671;SDS011;4874;43.568;27.824;2023-05-31T13:15:14;6.13;;;2.10;;
9671;SDS011;4874;43.568;27.824;2023-05-31T13:17:40;3.70;;;1.73;;
9671;SDS011;4874;43.568;27.824;2023-05-31T13:20:07;6.20;;;1.60;;
9671;SDS011;4874;43.568;27.824;2023-05-31T13:22:38;3.78;;;2.05;;
9671;SDS011;4874;43.568;27.824;2023-05-31T13:25:05;4.45;;;2.10;;
9671;SDS011;4874;43.568;27.824;2023-05-31T13:27:33;4.68;;;2.15;;
9671;SDS011;4874;43.568;27.824;2023-05-31T13:30:00;5.55;;;2.10;;
9671;SDS011;4874;43.568;27.824;2023-05-31T13:32:27;5.30;;;2.38;;
9671;SDS011;4874;43.568;27.824;2023-05-31T13:34:54;3.90;;;2.00;;
9671;SDS011;4874;43.568;27.824;2023-05-31T13:37:23;4.32;;;1.90;;
9671;SDS011;4874;43.568;27.824;2023-05-31T13:39:50;7.82;;;2.22;;
9671;SDS011;4874;43.568;27.824;2023-05-31T13:42:17;4.50;;;1.95;;
9671;SDS011;4874;43.568;27.824;2023-05-31T13:44:44;5.57;;;2.30;;
9671;SDS011;4874;43.568;27.824;2023-05-31T13:47:11;4.60;;;1.85;;
9671;SDS011;4874;43.568;27.824;2023-05-31T13:49:38;3.97;;;1.98;;
9671;SDS011;4874;43.568;27.824;2023-05-31T13:52:05;4.53;;;1.90;;
9671;SDS011;4874;43.568;27.824;2023-05-31T13:54:34;5.10;;;2.13;;
9671;SDS011;4874;43.568;27.824;2023-05-31T13:57:01;3.85;;;1.85;;
9671;SDS011;4874;43.568;27.824;2023-05-31T13:59:30;4.53;;;2.22;;
9671;SDS011;4874;43.568;27.824;2023-05-31T14:01:57;4.15;;;2.05;;
9671;SDS011;4874;43.568;27.824;2023-05-31T14:04:24;4.00;;;2.03;;
9671;SDS011;4874;43.568;27.824;2023-05-31T14:06:50;7.20;;;2.55;;
9671;SDS011;4874;43.568;27.824;2023-05-31T14:09:17;4.43;;;2.72;;
9671;SDS011;4874;43.568;27.824;2023-05-31T14:11:45;5.90;;;2.17;;
9671;SDS011;4874;43.568;27.824;2023-05-31T14:14:12;9.57;;;2.03;;
9671;SDS011;4874;43.568;27.824;2023-05-31T14:16:39;4.88;;;1.83;;
9671;SDS011;4874;43.568;27.824;2023-05-31T14:19:06;3.53;;;1.88;;
9671;SDS011;4874;43.568;27.824;2023-05-31T14:21:33;4.15;;;2.03;;
9671;SDS011;4874;43.568;27.824;2023-05-31T14:24:07;4.28;;;2.05;;
9671;SDS011;4874;43.568;27.824;2023-05-31T14:26:34;4.50;;;2.22;;
9671;SDS011;4874;43.568;27.824;2023-05-31T14:29:00;3.83;;;2.00;;
9671;SDS011;4874;43.568;27.824;2023-05-31T14:31:27;4.60;;;2.00;;
9671;SDS011;4874;43.568;27.824;2023-05-31T14:33:54;5.78;;;1.88;;
9671;SDS011;4874;43.568;27.824;2023-05-31T14:36:21;8.48;;;2.63;;
9671;SDS011;4874;43.568;27.824;2023-05-31T14:38:48;5.13;;;3.17;;
9671;SDS011;4874;43.568;27.824;2023-05-31T14:41:15;9.07;;;2.63;;
9671;SDS011;4874;43.568;27.824;2023-05-31T14:43:41;4.03;;;2.30;;
9671;SDS011;4874;43.568;27.824;2023-05-31T14:46:08;7.75;;;2.20;;
9671;SDS011;4874;43.568;27.824;2023-05-31T14:48:35;4.18;;;2.03;;
9671;SDS011;4874;43.568;27.824;2023-05-31T14:51:02;5.75;;;2.40;;
9671;SDS011;4874;43.568;27.824;2023-05-31T14:53:30;6.03;;;2.22;;
9671;SDS011;4874;43.568;27.824;2023-05-31T14:55:57;12.38;;;2.58;;
9671;SDS011;4874;43.568;27.824;2023-05-31T14:58:41;5.88;;;2.13;;
9671;SDS011;4874;43.568;27.824;2023-05-31T15:01:09;5.50;;;2.17;;
9671;SDS011;4874;43.568;27.824;2023-05-31T15:03:36;4.07;;;2.10;;
9671;SDS011;4874;43.568;27.824;2023-05-31T15:06:03;5.25;;;2.17;;
9671;SDS011;4874;43.568;27.824;2023-05-31T15:08:30;3.30;;;1.80;;
9671;SDS011;4874;43.568;27.824;2023-05-31T15:10:59;8.77;;;2.85;;
9671;SDS011;4874;43.568;27.824;2023-05-31T15:13:26;7.22;;;2.20;;
9671;SDS011;4874;43.568;27.824;2023-05-31T15:15:53;4.78;;;1.95;;
9671;SDS011;4874;43.568;27.824;2023-05-31T15:18:19;6.18;;;2.35;;
9671;SDS011;4874;43.568;27.824;2023-05-31T15:20:46;3.60;;;1.73;;
9671;SDS011;4874;43.568;27.824;2023-05-31T15:23:13;3.45;;;1.85;;
9671;SDS011;4874;43.568;27.824;2023-05-31T15:25:40;4.18;;;1.70;;
9671;SDS011;4874;43.568;27.824;2023-05-31T15:28:06;7.25;;;2.78;;
9671;SDS011;4874;43.568;27.824;2023-05-31T15:30:33;5.60;;;1.98;;
9671;SDS011;4874;43.568;27.824;2023-05-31T15:33:00;7.13;;;2.50;;
9671;SDS011;4874;43.568;27.824;2023-05-31T15:35:27;7.18;;;2.83;;
9671;SDS011;4874;43.568;27.824;2023-05-31T15:37:54;4.25;;;2.15;;
9671;SDS011;4874;43.568;27.824;2023-05-31T15:40:20;8.68;;;2.38;;
9671;SDS011;4874;43.568;27.824;2023-05-31T15:42:47;6.15;;;2.10;;